SYCJ

Georgetown/Cheddi Jagan International

Airport
ICAO code
SYCJ
IATA Code
GEO
Summary
ICAO Region
CARSAM
ICAO Territory
Location

Timehri, Demerara-Mahaica

Serving
Georgetown
Elevation
95 ft
Coordinates
6° 29' 58" N , 58° 15' 17" W
KCC
Af
Metar
Observation
SYCJ 170900Z 23004KT 9999 FEW014 23/23 Q1011 NOSIG
Station
Georgetown/Cheddi Jagan International Airport
Date/Time
2022-08-17 09:00:00
Wind direction
230°
Wind speed
04 kts
Lowest cloud amount
few clouds
Temperature
23°C
Dew point
23°C
Humidity
100%
QNH
1011 hPa
Weather condition
n/a

Cheddi Jagan International Airport, formerly Timehri International Airport, is the national airport of Guyana. The airport is located on the right bank of the Demerara River in the city of Timehri, 41 km south of Guyana's capital, Georgetown.

Climatology

Tropical Rainforest climate (Köppen climate classification Af).

Runways

Designator Length Width Surface Rops
11/29 1525 45 ASP Yes/Yes
6/24 2270 45 ASP Yes/Yes

Airport map

Aerial View

Airport accidents

SKYbrary Partners:

Safety knowledge contributed by: